sensor_id;sensor_type;location;lat;lon;timestamp;temperature;humidity
53146;DHT22;39042;53.150;5.898;2022-11-28T00:06:44;12.90;90.60
53146;DHT22;39042;53.150;5.898;2022-11-28T00:09:11;12.80;90.60
53146;DHT22;39042;53.150;5.898;2022-11-28T00:11:40;12.80;90.60
53146;DHT22;39042;53.150;5.898;2022-11-28T00:14:06;12.80;90.60
53146;DHT22;39042;53.150;5.898;2022-11-28T00:16:32;12.80;90.70
53146;DHT22;39042;53.150;5.898;2022-11-28T00:18:59;12.80;90.70
53146;DHT22;39042;53.150;5.898;2022-11-28T00:21:25;12.80;90.70
53146;DHT22;39042;53.150;5.898;2022-11-28T00:23:51;12.90;90.70
53146;DHT22;39042;53.150;5.898;2022-11-28T00:26:20;12.90;90.70
53146;DHT22;39042;53.150;5.898;2022-11-28T00:28:47;12.90;90.70
53146;DHT22;39042;53.150;5.898;2022-11-28T00:31:18;12.80;90.60
53146;DHT22;39042;53.150;5.898;2022-11-28T00:33:45;12.90;90.60
53146;DHT22;39042;53.150;5.898;2022-11-28T00:36:11;12.90;90.70
53146;DHT22;39042;53.150;5.898;2022-11-28T00:38:37;12.90;90.70
53146;DHT22;39042;53.150;5.898;2022-11-28T00:43:34;12.90;90.60
53146;DHT22;39042;53.150;5.898;2022-11-28T00:46:00;12.90;90.70
53146;DHT22;39042;53.150;5.898;2022-11-28T00:48:27;12.90;90.70
53146;DHT22;39042;53.150;5.898;2022-11-28T00:50:54;12.90;90.70
53146;DHT22;39042;53.150;5.898;2022-11-28T00:53:20;12.90;90.70
53146;DHT22;39042;53.150;5.898;2022-11-28T00:55:46;12.90;90.70
53146;DHT22;39042;53.150;5.898;2022-11-28T00:58:12;12.90;90.70
53146;DHT22;39042;53.150;5.898;2022-11-28T01:00:38;12.90;90.70
53146;DHT22;39042;53.150;5.898;2022-11-28T01:03:04;12.90;90.70
53146;DHT22;39042;53.150;5.898;2022-11-28T01:05:30;12.90;90.70
53146;DHT22;39042;53.150;5.898;2022-11-28T01:07:55;12.90;90.70
53146;DHT22;39042;53.150;5.898;2022-11-28T03:53:59;12.40;91.30
53146;DHT22;39042;53.150;5.898;2022-11-28T04:14:36;12.50;91.50
53146;DHT22;39042;53.150;5.898;2022-11-28T04:17:25;12.50;91.50
53146;DHT22;39042;53.150;5.898;2022-11-28T04:20:02;12.50;91.40
53146;DHT22;39042;53.150;5.898;2022-11-28T04:22:34;12.50;91.50
53146;DHT22;39042;53.150;5.898;2022-11-28T04:25:04;12.50;91.60
53146;DHT22;39042;53.150;5.898;2022-11-28T04:27:36;12.60;91.60
53146;DHT22;39042;53.150;5.898;2022-11-28T04:30:04;12.50;91.60
53146;DHT22;39042;53.150;5.898;2022-11-28T04:32:34;12.50;91.50
53146;DHT22;39042;53.150;5.898;2022-11-28T04:35:08;12.50;91.50
53146;DHT22;39042;53.150;5.898;2022-11-28T04:37:37;12.60;91.50
53146;DHT22;39042;53.150;5.898;2022-11-28T04:40:05;12.50;91.50
53146;DHT22;39042;53.150;5.898;2022-11-28T04:42:38;12.50;91.50
53146;DHT22;39042;53.150;5.898;2022-11-28T04:45:14;12.60;91.50
53146;DHT22;39042;53.150;5.898;2022-11-28T04:47:41;12.60;91.50
53146;DHT22;39042;53.150;5.898;2022-11-28T04:50:07;12.60;91.50
53146;DHT22;39042;53.150;5.898;2022-11-28T04:52:49;12.50;91.40
53146;DHT22;39042;53.150;5.898;2022-11-28T04:55:28;12.50;91.50
53146;DHT22;39042;53.150;5.898;2022-11-28T05:38:00;12.50;91.50
53146;DHT22;39042;53.150;5.898;2022-11-28T05:40:26;12.50;91.50
53146;DHT22;39042;53.150;5.898;2022-11-28T05:42:51;12.60;91.50
53146;DHT22;39042;53.150;5.898;2022-11-28T05:45:17;12.60;91.50
53146;DHT22;39042;53.150;5.898;2022-11-28T05:47:43;12.60;91.50
53146;DHT22;39042;53.150;5.898;2022-11-28T05:50:09;12.60;91.40
53146;DHT22;39042;53.150;5.898;2022-11-28T05:52:35;12.50;91.40
53146;DHT22;39042;53.150;5.898;2022-11-28T05:55:00;12.60;91.40
53146;DHT22;39042;53.150;5.898;2022-11-28T05:57:26;12.60;91.30
53146;DHT22;39042;53.150;5.898;2022-11-28T05:59:54;12.60;91.30
53146;DHT22;39042;53.150;5.898;2022-11-28T06:02:20;12.60;91.30
53146;DHT22;39042;53.150;5.898;2022-11-28T06:04:46;12.60;91.20
53146;DHT22;39042;53.150;5.898;2022-11-28T06:07:12;12.60;91.20
53146;DHT22;39042;53.150;5.898;2022-11-28T06:09:37;12.60;91.20
53146;DHT22;39042;53.150;5.898;2022-11-28T06:12:03;12.60;91.20
53146;DHT22;39042;53.150;5.898;2022-11-28T06:14:29;12.70;91.20
53146;DHT22;39042;53.150;5.898;2022-11-28T06:16:55;12.70;91.20
53146;DHT22;39042;53.150;5.898;2022-11-28T06:19:21;12.70;91.20
53146;DHT22;39042;53.150;5.898;2022-11-28T06:21:49;12.70;91.20
53146;DHT22;39042;53.150;5.898;2022-11-28T06:24:15;12.70;91.40
53146;DHT22;39042;53.150;5.898;2022-11-28T13:28:48;13.40;92.80
53146;DHT22;39042;53.150;5.898;2022-11-28T13:31:37;13.40;92.80
53146;DHT22;39042;53.150;5.898;2022-11-28T13:34:12;13.40;93.10
53146;DHT22;39042;53.150;5.898;2022-11-28T13:37:05;13.40;92.90
53146;DHT22;39042;53.150;5.898;2022-11-28T13:39:43;13.50;93.00
53146;DHT22;39042;53.150;5.898;2022-11-28T13:45:15;13.50;92.90
53146;DHT22;39042;53.150;5.898;2022-11-28T13:47:46;13.50;93.00
53146;DHT22;39042;53.150;5.898;2022-11-28T15:22:53;13.60;93.30
53146;DHT22;39042;53.150;5.898;2022-11-28T15:27:50;13.50;93.20
